sensor_id;sensor_type;location;lat;lon;timestamp;pressure;altitude;pressure_sealevel;temperature;humidity
79347;BME280;68815;48.810;44.482;2023-08-06T07:37:12;100460;;;35.7;28.5
79347;BME280;68815;48.810;44.482;2023-08-06T07:40:14;100457;;;35.8;27.9
79347;BME280;68815;48.810;44.482;2023-08-06T07:43:15;100450;;;35.9;28.5
79347;BME280;68815;48.810;44.482;2023-08-06T07:46:17;100452;;;36.1;28.7
79347;BME280;68815;48.810;44.482;2023-08-06T07:49:18;100448;;;36;27.6
79347;BME280;68815;48.810;44.482;2023-08-06T07:52:19;100447;;;35.8;27.2
79347;BME280;68815;48.810;44.482;2023-08-06T07:55:21;100435;;;35.9;27.3
79347;BME280;68815;48.810;44.482;2023-08-06T07:58:23;100436;;;36.2;27.4
79347;BME280;68815;48.810;44.482;2023-08-06T08:01:26;100447;;;35.7;28
79347;BME280;68815;48.810;44.482;2023-08-06T08:04:27;100436;;;35.9;27.3
79347;BME280;68815;48.810;44.482;2023-08-06T08:07:28;100430;;;35.8;27.8
79347;BME280;68815;48.810;44.482;2023-08-06T08:10:30;100425;;;35.9;27
79347;BME280;68815;48.810;44.482;2023-08-06T08:13:32;100424;;;35.9;27.4
79347;BME280;68815;48.810;44.482;2023-08-06T08:16:34;100419;;;35.9;26.9
79347;BME280;68815;48.810;44.482;2023-08-06T08:19:35;100427;;;35.7;27.1
79347;BME280;68815;48.810;44.482;2023-08-06T08:22:37;100421;;;35.7;26.6
79347;BME280;68815;48.810;44.482;2023-08-06T08:25:38;100410;;;35.7;26.8
79347;BME280;68815;48.810;44.482;2023-08-06T08:28:39;100406;;;35.7;27.1
79347;BME280;68815;48.810;44.482;2023-08-06T08:31:41;100406;;;35.8;27
79347;BME280;68815;48.810;44.482;2023-08-06T08:34:42;100403;;;35.8;26.7
79347;BME280;68815;48.810;44.482;2023-08-06T08:37:44;100395;;;35.7;26.8
79347;BME280;68815;48.810;44.482;2023-08-06T08:40:46;100397;;;35.8;26.8
79347;BME280;68815;48.810;44.482;2023-08-06T08:43:53;100395;;;35.6;27
79347;BME280;68815;48.810;44.482;2023-08-06T08:46:55;100391;;;35.5;26.8
79347;BME280;68815;48.810;44.482;2023-08-06T08:49:57;100381;;;35.4;27.2
79347;BME280;68815;48.810;44.482;2023-08-06T08:52:59;100389;;;35.4;27.1
79347;BME280;68815;48.810;44.482;2023-08-06T08:56:01;100390;;;35.2;27
79347;BME280;68815;48.810;44.482;2023-08-06T08:59:02;100374;;;35.1;26.8
79347;BME280;68815;48.810;44.482;2023-08-06T09:02:05;100364;;;35.2;27.3
79347;BME280;68815;48.810;44.482;2023-08-06T09:05:06;100362;;;35.4;27
79347;BME280;68815;48.810;44.482;2023-08-06T09:08:11;100365;;;35.6;27.1
79347;BME280;68815;48.810;44.482;2023-08-06T09:11:13;100374;;;35.5;26.6
79347;BME280;68815;48.810;44.482;2023-08-06T09:14:15;100359;;;35.4;27.2
79347;BME280;68815;48.810;44.482;2023-08-06T09:17:17;100347;;;35.5;26.9
79347;BME280;68815;48.810;44.482;2023-08-06T09:20:19;100348;;;35.6;26.1
79347;BME280;68815;48.810;44.482;2023-08-06T09:23:27;100350;;;35.5;25.2
79347;BME280;68815;48.810;44.482;2023-08-06T09:26:33;100342;;;35.2;26.1
79347;BME280;68815;48.810;44.482;2023-08-06T09:29:39;100354;;;35.3;26.7
79347;BME280;68815;48.810;44.482;2023-08-06T09:32:45;100335;;;35.2;26.7
79347;BME280;68815;48.810;44.482;2023-08-06T09:35:46;100339;;;35.2;25.5
79347;BME280;68815;48.810;44.482;2023-08-06T09:38:48;100328;;;35.2;25.5
79347;BME280;68815;48.810;44.482;2023-08-06T09:41:55;100321;;;35.4;25.3
79347;BME280;68815;48.810;44.482;2023-08-06T09:45:05;100319;;;35.5;25.6
79347;BME280;68815;48.810;44.482;2023-08-06T09:48:08;100330;;;35.6;25.8
79347;BME280;68815;48.810;44.482;2023-08-06T09:51:10;100323;;;35.7;25.6
79347;BME280;68815;48.810;44.482;2023-08-06T09:54:15;100329;;;35.7;25.4
79347;BME280;68815;48.810;44.482;2023-08-06T09:57:16;100320;;;35.6;25.5
79347;BME280;68815;48.810;44.482;2023-08-06T10:00:18;100310;;;35.5;25.6
79347;BME280;68815;48.810;44.482;2023-08-06T10:03:20;100310;;;35.5;25.2
79347;BME280;68815;48.810;44.482;2023-08-06T10:06:22;100306;;;35.5;25.5
79347;BME280;68815;48.810;44.482;2023-08-06T10:09:25;100303;;;35.5;25.4
79347;BME280;68815;48.810;44.482;2023-08-06T10:12:29;100303;;;35.5;25.2
79347;BME280;68815;48.810;44.482;2023-08-06T10:15:36;100296;;;35.6;25.1
79347;BME280;68815;48.810;44.482;2023-08-06T10:18:38;100293;;;35.6;25
79347;BME280;68815;48.810;44.482;2023-08-06T10:21:40;100281;;;35.6;25.1
79347;BME280;68815;48.810;44.482;2023-08-06T10:24:46;100275;;;35.6;25.1
79347;BME280;68815;48.810;44.482;2023-08-06T10:27:53;100273;;;35.6;25.4
79347;BME280;68815;48.810;44.482;2023-08-06T10:30:55;100272;;;35.7;24.6
79347;BME280;68815;48.810;44.482;2023-08-06T10:33:57;100269;;;35.6;24.5
79347;BME280;68815;48.810;44.482;2023-08-06T10:36:58;100266;;;35.5;24.8
79347;BME280;68815;48.810;44.482;2023-08-06T10:40:00;100266;;;35.5;25
79347;BME280;68815;48.810;44.482;2023-08-06T10:43:02;100258;;;35.6;25.2
79347;BME280;68815;48.810;44.482;2023-08-06T10:46:10;100262;;;35.8;24.4
79347;BME280;68815;48.810;44.482;2023-08-06T10:49:13;100257;;;35.9;25
79347;BME280;68815;48.810;44.482;2023-08-06T10:52:19;100254;;;35.9;24.4
79347;BME280;68815;48.810;44.482;2023-08-06T10:55:25;100256;;;35.9;24.6
79347;BME280;68815;48.810;44.482;2023-08-06T10:58:30;100250;;;35.8;24.3
79347;BME280;68815;48.810;44.482;2023-08-06T11:01:33;100240;;;35.7;24.8
79347;BME280;68815;48.810;44.482;2023-08-06T11:04:34;100234;;;35.7;24.7
79347;BME280;68815;48.810;44.482;2023-08-06T11:07:36;100234;;;35.8;24.9
79347;BME280;68815;48.810;44.482;2023-08-06T11:10:37;100221;;;35.8;25.1
79347;BME280;68815;48.810;44.482;2023-08-06T11:13:39;100214;;;36;25.1
79347;BME280;68815;48.810;44.482;2023-08-06T11:16:40;100227;;;35.9;24.4
79347;BME280;68815;48.810;44.482;2023-08-06T11:19:43;100216;;;35.8;24.5
79347;BME280;68815;48.810;44.482;2023-08-06T11:22:45;100213;;;36.2;23.7
79347;BME280;68815;48.810;44.482;2023-08-06T11:25:46;100211;;;36;23.7
79347;BME280;68815;48.810;44.482;2023-08-06T11:28:47;100216;;;36;23.9
79347;BME280;68815;48.810;44.482;2023-08-06T11:31:49;100205;;;35.8;24.4
79347;BME280;68815;48.810;44.482;2023-08-06T11:34:52;100199;;;35.8;24.8
79347;BME280;68815;48.810;44.482;2023-08-06T11:37:54;100195;;;35.9;24.7
79347;BME280;68815;48.810;44.482;2023-08-06T11:40:56;100197;;;36;24.2
79347;BME280;68815;48.810;44.482;2023-08-06T11:43:57;100195;;;36;24.6
79347;BME280;68815;48.810;44.482;2023-08-06T11:47:00;100200;;;36;24.4
79347;BME280;68815;48.810;44.482;2023-08-06T11:50:02;100190;;;35.9;24.8
79347;BME280;68815;48.810;44.482;2023-08-06T11:53:04;100184;;;35.8;24.7
79347;BME280;68815;48.810;44.482;2023-08-06T11:56:05;100185;;;35.7;24.9
79347;BME280;68815;48.810;44.482;2023-08-06T11:59:08;100179;;;35.8;25
79347;BME280;68815;48.810;44.482;2023-08-06T12:02:09;100171;;;36;24.8
79347;BME280;68815;48.810;44.482;2023-08-06T12:05:11;100170;;;35.9;24.7
79347;BME280;68815;48.810;44.482;2023-08-06T12:08:13;100170;;;36.1;24.9
79347;BME280;68815;48.810;44.482;2023-08-06T12:11:14;100156;;;36.2;24.9
79347;BME280;68815;48.810;44.482;2023-08-06T12:14:16;100154;;;36.3;24.2
79347;BME280;68815;48.810;44.482;2023-08-06T12:17:18;100157;;;36.1;24.1
79347;BME280;68815;48.810;44.482;2023-08-06T12:20:19;100155;;;36;24.2
79347;BME280;68815;48.810;44.482;2023-08-06T12:23:20;100152;;;35.9;24.4
79347;BME280;68815;48.810;44.482;2023-08-06T12:26:22;100135;;;35.9;24.6
79347;BME280;68815;48.810;44.482;2023-08-06T12:29:24;100132;;;35.9;24.5
79347;BME280;68815;48.810;44.482;2023-08-06T12:32:26;100144;;;35.9;24.4
79347;BME280;68815;48.810;44.482;2023-08-06T12:35:27;100141;;;35.8;24.6
79347;BME280;68815;48.810;44.482;2023-08-06T12:38:29;100129;;;35.8;24.6
79347;BME280;68815;48.810;44.482;2023-08-06T12:41:30;100138;;;35.7;24.9
79347;BME280;68815;48.810;44.482;2023-08-06T12:44:32;100135;;;35.8;25.2
79347;BME280;68815;48.810;44.482;2023-08-06T12:47:34;100131;;;36;24.9
79347;BME280;68815;48.810;44.482;2023-08-06T12:50:35;100129;;;36;24.8
79347;BME280;68815;48.810;44.482;2023-08-06T12:53:37;100132;;;35.9;24.6
79347;BME280;68815;48.810;44.482;2023-08-06T12:56:38;100129;;;36;24.7
79347;BME280;68815;48.810;44.482;2023-08-06T12:59:40;100129;;;35.9;24.7
79347;BME280;68815;48.810;44.482;2023-08-06T13:02:42;100123;;;36;25
79347;BME280;68815;48.810;44.482;2023-08-06T13:05:43;100124;;;35.8;24.7
79347;BME280;68815;48.810;44.482;2023-08-06T13:08:44;100113;;;35.9;24.5
79347;BME280;68815;48.810;44.482;2023-08-06T13:11:46;100107;;;36;24.6
79347;BME280;68815;48.810;44.482;2023-08-06T13:14:48;100108;;;35.9;24.3
79347;BME280;68815;48.810;44.482;2023-08-06T13:17:49;100109;;;35.9;24.6
79347;BME280;68815;48.810;44.482;2023-08-06T13:20:53;100108;;;35.8;24.7
79347;BME280;68815;48.810;44.482;2023-08-06T13:23:54;100105;;;35.8;24.7
79347;BME280;68815;48.810;44.482;2023-08-06T13:26:56;100107;;;35.8;24.7
79347;BME280;68815;48.810;44.482;2023-08-06T13:29:57;100114;;;35.8;24.8
79347;BME280;68815;48.810;44.482;2023-08-06T13:32:58;100098;;;35.7;24.8
79347;BME280;68815;48.810;44.482;2023-08-06T13:36:00;100091;;;35.7;24.7
79347;BME280;68815;48.810;44.482;2023-08-06T13:39:01;100090;;;35.7;24.6
79347;BME280;68815;48.810;44.482;2023-08-06T13:42:03;100092;;;35.8;24.6
79347;BME280;68815;48.810;44.482;2023-08-06T13:45:05;100095;;;35.7;24.8
79347;BME280;68815;48.810;44.482;2023-08-06T13:48:07;100087;;;35.7;24.9
79347;BME280;68815;48.810;44.482;2023-08-06T13:51:09;100080;;;35.7;24.9
79347;BME280;68815;48.810;44.482;2023-08-06T13:54:10;100085;;;35.6;25.3
79347;BME280;68815;48.810;44.482;2023-08-06T13:57:12;100080;;;35.6;25.4
79347;BME280;68815;48.810;44.482;2023-08-06T14:00:14;100084;;;35.5;25.9
79347;BME280;68815;48.810;44.482;2023-08-06T14:03:16;100070;;;35.6;26
79347;BME280;68815;48.810;44.482;2023-08-06T14:06:17;100073;;;35.6;25.2
79347;BME280;68815;48.810;44.482;2023-08-06T14:09:18;100068;;;35.6;25.6
79347;BME280;68815;48.810;44.482;2023-08-06T14:12:20;100074;;;35.7;24.9
79347;BME280;68815;48.810;44.482;2023-08-06T14:15:21;100069;;;35.6;25.2
79347;BME280;68815;48.810;44.482;2023-08-06T14:18:23;100071;;;35.7;25.2
79347;BME280;68815;48.810;44.482;2023-08-06T14:21:24;100062;;;35.6;25.2
79347;BME280;68815;48.810;44.482;2023-08-06T14:24:26;100058;;;35.5;25.5
79347;BME280;68815;48.810;44.482;2023-08-06T14:27:28;100060;;;35.5;25.6
79347;BME280;68815;48.810;44.482;2023-08-06T14:30:29;100063;;;35.4;25.9
79347;BME280;68815;48.810;44.482;2023-08-06T14:33:30;100059;;;35.4;26
79347;BME280;68815;48.810;44.482;2023-08-06T14:36:32;100065;;;35.4;26.2
79347;BME280;68815;48.810;44.482;2023-08-06T14:39:33;100062;;;35.3;26.3
79347;BME280;68815;48.810;44.482;2023-08-06T14:42:35;100062;;;35.3;26
79347;BME280;68815;48.810;44.482;2023-08-06T14:45:37;100066;;;35.3;26.2
79347;BME280;68815;48.810;44.482;2023-08-06T14:48:38;100066;;;35.2;26.4
79347;BME280;68815;48.810;44.482;2023-08-06T14:51:40;100060;;;35.2;27.1
79347;BME280;68815;48.810;44.482;2023-08-06T14:54:41;100063;;;35.1;26.8
79347;BME280;68815;48.810;44.482;2023-08-06T14:57:43;100064;;;35;27.2
79347;BME280;68815;48.810;44.482;2023-08-06T15:00:47;100065;;;35;27.6
79347;BME280;68815;48.810;44.482;2023-08-06T15:03:50;100061;;;34.9;27.9
79347;BME280;68815;48.810;44.482;2023-08-06T15:06:51;100058;;;34.9;27.7
79347;BME280;68815;48.810;44.482;2023-08-06T15:09:52;100055;;;34.8;27.8
79347;BME280;68815;48.810;44.482;2023-08-06T15:12:54;100049;;;34.8;27.9
79347;BME280;68815;48.810;44.482;2023-08-06T15:15:55;100052;;;34.7;28
79347;BME280;68815;48.810;44.482;2023-08-06T15:18:57;100050;;;34.7;28.3
79347;BME280;68815;48.810;44.482;2023-08-06T15:21:59;100055;;;34.5;27.9
79347;BME280;68815;48.810;44.482;2023-08-06T15:25:01;100050;;;34.4;28.6
79347;BME280;68815;48.810;44.482;2023-08-06T15:28:02;100053;;;34.5;28.9
79347;BME280;68815;48.810;44.482;2023-08-06T15:31:04;100058;;;34.5;28.9
79347;BME280;68815;48.810;44.482;2023-08-06T15:34:06;100061;;;34.5;28.8
79347;BME280;68815;48.810;44.482;2023-08-06T15:37:08;100065;;;34.4;29.3
79347;BME280;68815;48.810;44.482;2023-08-06T15:40:10;100061;;;34.4;29.4
79347;BME280;68815;48.810;44.482;2023-08-06T15:43:12;100062;;;34.3;29.5
79347;BME280;68815;48.810;44.482;2023-08-06T15:46:13;100059;;;34.3;29.2
79347;BME280;68815;48.810;44.482;2023-08-06T15:49:14;100054;;;34.2;29.2
79347;BME280;68815;48.810;44.482;2023-08-06T15:52:16;100050;;;34.2;29.2
79347;BME280;68815;48.810;44.482;2023-08-06T15:55:18;100054;;;34.1;29.3
79347;BME280;68815;48.810;44.482;2023-08-06T15:58:19;100056;;;34.1;29.6
79347;BME280;68815;48.810;44.482;2023-08-06T16:01:21;100056;;;34;29.8
79347;BME280;68815;48.810;44.482;2023-08-06T16:04:23;100053;;;34;30.1
79347;BME280;68815;48.810;44.482;2023-08-06T16:07:24;100059;;;33.9;30.3
79347;BME280;68815;48.810;44.482;2023-08-06T16:10:26;100048;;;33.8;30.6
79347;BME280;68815;48.810;44.482;2023-08-06T16:13:28;100058;;;33.7;30.6
79347;BME280;68815;48.810;44.482;2023-08-06T16:16:29;100060;;;33.7;30.7
79347;BME280;68815;48.810;44.482;2023-08-06T16:19:31;100054;;;33.6;31
79347;BME280;68815;48.810;44.482;2023-08-06T16:22:32;100054;;;33.5;31.2
79347;BME280;68815;48.810;44.482;2023-08-06T16:25:36;100062;;;33.4;31.3
79347;BME280;68815;48.810;44.482;2023-08-06T16:28:38;100057;;;33.3;31.4
79347;BME280;68815;48.810;44.482;2023-08-06T16:31:45;100063;;;33.2;31.6
79347;BME280;68815;48.810;44.482;2023-08-06T16:34:47;100079;;;33.2;31.7
79347;BME280;68815;48.810;44.482;2023-08-06T16:37:49;100078;;;33.1;31.8
79347;BME280;68815;48.810;44.482;2023-08-06T16:40:51;100073;;;33;32
79347;BME280;68815;48.810;44.482;2023-08-06T16:43:54;100067;;;32.9;32.1
79347;BME280;68815;48.810;44.482;2023-08-06T16:46:55;100071;;;32.9;32.1
79347;BME280;68815;48.810;44.482;2023-08-06T16:49:57;100067;;;32.8;32.1
79347;BME280;68815;48.810;44.482;2023-08-06T16:52:58;100071;;;32.8;32.3
79347;BME280;68815;48.810;44.482;2023-08-06T16:56:00;100070;;;32.7;32.4
79347;BME280;68815;48.810;44.482;2023-08-06T16:59:01;100064;;;32.6;32.6
79347;BME280;68815;48.810;44.482;2023-08-06T17:02:03;100063;;;32.5;32.6
79347;BME280;68815;48.810;44.482;2023-08-06T17:05:05;100078;;;32.5;32.5
79347;BME280;68815;48.810;44.482;2023-08-06T17:08:07;100095;;;32.5;32.4
79347;BME280;68815;48.810;44.482;2023-08-06T17:11:08;100086;;;32.5;32.5
79347;BME280;68815;48.810;44.482;2023-08-06T17:14:10;100093;;;32.4;32.5
79347;BME280;68815;48.810;44.482;2023-08-06T17:17:11;100097;;;32.4;32.6
79347;BME280;68815;48.810;44.482;2023-08-06T17:20:13;100095;;;32.3;32.8
79347;BME280;68815;48.810;44.482;2023-08-06T17:23:15;100103;;;32.2;32.9
79347;BME280;68815;48.810;44.482;2023-08-06T17:26:17;100097;;;32.2;33
79347;BME280;68815;48.810;44.482;2023-08-06T17:29:26;100107;;;32.1;33.1
79347;BME280;68815;48.810;44.482;2023-08-06T17:32:28;100102;;;32.1;33.1
79347;BME280;68815;48.810;44.482;2023-08-06T17:35:30;100095;;;32;33.3
79347;BME280;68815;48.810;44.482;2023-08-06T17:38:32;100100;;;31.9;33.4
79347;BME280;68815;48.810;44.482;2023-08-06T17:41:33;100093;;;31.9;33.5
79347;BME280;68815;48.810;44.482;2023-08-06T17:44:41;100098;;;31.8;33.6
79347;BME280;68815;48.810;44.482;2023-08-06T17:47:42;100098;;;31.8;33.7
79347;BME280;68815;48.810;44.482;2023-08-06T17:50:44;100094;;;31.8;33.8
79347;BME280;68815;48.810;44.482;2023-08-06T17:53:45;100089;;;31.7;33.9
79347;BME280;68815;48.810;44.482;2023-08-06T17:56:47;100099;;;31.7;34
79347;BME280;68815;48.810;44.482;2023-08-06T17:59:48;100090;;;31.7;34
79347;BME280;68815;48.810;44.482;2023-08-06T18:02:50;100088;;;31.6;34.1
79347;BME280;68815;48.810;44.482;2023-08-06T18:05:55;100086;;;31.6;34.2
79347;BME280;68815;48.810;44.482;2023-08-06T18:08:57;100087;;;31.5;34.3
79347;BME280;68815;48.810;44.482;2023-08-06T18:11:58;100076;;;31.5;34.4
79347;BME280;68815;48.810;44.482;2023-08-06T18:14:59;100083;;;31.4;34.4
79347;BME280;68815;48.810;44.482;2023-08-06T18:18:01;100084;;;31.4;34.6
79347;BME280;68815;48.810;44.482;2023-08-06T18:21:02;100074;;;31.3;34.9
79347;BME280;68815;48.810;44.482;2023-08-06T18:24:04;100084;;;31.2;34.5
79347;BME280;68815;48.810;44.482;2023-08-06T18:27:06;100086;;;31.2;35
79347;BME280;68815;48.810;44.482;2023-08-06T18:30:08;100074;;;31.1;35.2
79347;BME280;68815;48.810;44.482;2023-08-06T18:33:09;100075;;;31.1;35.2
79347;BME280;68815;48.810;44.482;2023-08-06T18:36:11;100080;;;31;35.3
79347;BME280;68815;48.810;44.482;2023-08-06T18:39:12;100075;;;31;35.3
79347;BME280;68815;48.810;44.482;2023-08-06T18:42:14;100066;;;30.9;35.4
79347;BME280;68815;48.810;44.482;2023-08-06T18:45:16;100071;;;30.9;35.5
79347;BME280;68815;48.810;44.482;2023-08-06T18:48:18;100078;;;30.8;35.8
79347;BME280;68815;48.810;44.482;2023-08-06T18:51:19;100064;;;30.8;35.8
79347;BME280;68815;48.810;44.482;2023-08-06T18:54:21;100066;;;30.8;35.8
79347;BME280;68815;48.810;44.482;2023-08-06T18:57:22;100074;;;30.7;35.9
79347;BME280;68815;48.810;44.482;2023-08-06T19:00:24;100071;;;30.7;36.1
79347;BME280;68815;48.810;44.482;2023-08-06T19:03:25;100066;;;30.6;36.3
79347;BME280;68815;48.810;44.482;2023-08-06T19:06:27;100070;;;30.6;36.5
79347;BME280;68815;48.810;44.482;2023-08-06T19:09:28;100065;;;30.5;36.5
79347;BME280;68815;48.810;44.482;2023-08-06T19:12:30;100070;;;30.5;36.8
79347;BME280;68815;48.810;44.482;2023-08-06T19:15:31;100068;;;30.5;36.8
79347;BME280;68815;48.810;44.482;2023-08-06T19:18:32;100071;;;30.4;36.9
79347;BME280;68815;48.810;44.482;2023-08-06T19:21:34;100060;;;30.3;36.9
79347;BME280;68815;48.810;44.482;2023-08-06T19:24:35;100073;;;30.3;36.9
79347;BME280;68815;48.810;44.482;2023-08-06T19:27:37;100067;;;30.3;37
79347;BME280;68815;48.810;44.482;2023-08-06T19:30:39;100071;;;30.3;37
79347;BME280;68815;48.810;44.482;2023-08-06T19:33:40;100061;;;30.2;37.1
79347;BME280;68815;48.810;44.482;2023-08-06T19:36:42;100072;;;30.2;37.1
79347;BME280;68815;48.810;44.482;2023-08-06T19:39:43;100071;;;30.2;37.2
79347;BME280;68815;48.810;44.482;2023-08-06T19:42:45;100067;;;30.2;37.2
79347;BME280;68815;48.810;44.482;2023-08-06T19:45:47;100066;;;30.1;37.4
79347;BME280;68815;48.810;44.482;2023-08-06T19:48:49;100066;;;30.1;37.5
79347;BME280;68815;48.810;44.482;2023-08-06T19:51:51;100076;;;30.1;37.6
79347;BME280;68815;48.810;44.482;2023-08-06T19:54:52;100069;;;30;37.7
79347;BME280;68815;48.810;44.482;2023-08-06T19:57:54;100067;;;30;38
79347;BME280;68815;48.810;44.482;2023-08-06T20:00:56;100058;;;29.9;38.1
79347;BME280;68815;48.810;44.482;2023-08-06T20:03:57;100064;;;29.9;38.4
79347;BME280;68815;48.810;44.482;2023-08-06T20:06:59;100059;;;29.8;38.5
79347;BME280;68815;48.810;44.482;2023-08-06T20:10:00;100065;;;29.8;38.6
79347;BME280;68815;48.810;44.482;2023-08-06T20:13:01;100064;;;29.7;38.8
79347;BME280;68815;48.810;44.482;2023-08-06T20:16:03;100061;;;29.7;38.9
79347;BME280;68815;48.810;44.482;2023-08-06T20:19:04;100072;;;29.7;38.9
79347;BME280;68815;48.810;44.482;2023-08-06T20:22:06;100070;;;29.6;39.1
79347;BME280;68815;48.810;44.482;2023-08-06T20:25:07;100063;;;29.6;39.2
79347;BME280;68815;48.810;44.482;2023-08-06T20:28:09;100066;;;29.5;39.3
79347;BME280;68815;48.810;44.482;2023-08-06T20:31:11;100062;;;29.5;39.4
79347;BME280;68815;48.810;44.482;2023-08-06T20:34:12;100059;;;29.4;39.6
79347;BME280;68815;48.810;44.482;2023-08-06T20:37:13;100067;;;29.4;39.8
79347;BME280;68815;48.810;44.482;2023-08-06T20:40:15;100067;;;29.4;40
79347;BME280;68815;48.810;44.482;2023-08-06T20:43:16;100071;;;29.3;40.3
79347;BME280;68815;48.810;44.482;2023-08-06T20:46:18;100063;;;29.3;40.4
79347;BME280;68815;48.810;44.482;2023-08-06T20:49:21;100074;;;29.2;40.6
79347;BME280;68815;48.810;44.482;2023-08-06T20:52:22;100076;;;29.2;40.7
79347;BME280;68815;48.810;44.482;2023-08-06T20:55:25;100074;;;29.1;41
79347;BME280;68815;48.810;44.482;2023-08-06T20:58:27;100066;;;29;41.3
79347;BME280;68815;48.810;44.482;2023-08-06T21:01:28;100063;;;29;41.5
79347;BME280;68815;48.810;44.482;2023-08-06T21:04:30;100066;;;28.9;41.8
79347;BME280;68815;48.810;44.482;2023-08-06T21:07:32;100074;;;28.8;42
79347;BME280;68815;48.810;44.482;2023-08-06T21:10:33;100064;;;28.8;42.4
79347;BME280;68815;48.810;44.482;2023-08-06T21:13:35;100065;;;28.7;42.6
79347;BME280;68815;48.810;44.482;2023-08-06T21:16:36;100054;;;28.7;42.9
79347;BME280;68815;48.810;44.482;2023-08-06T21:19:38;100063;;;28.6;43
79347;BME280;68815;48.810;44.482;2023-08-06T21:22:39;100061;;;28.6;43.1
79347;BME280;68815;48.810;44.482;2023-08-06T21:25:41;100065;;;28.5;43.2
79347;BME280;68815;48.810;44.482;2023-08-06T21:28:42;100055;;;28.5;43.4
79347;BME280;68815;48.810;44.482;2023-08-06T21:31:44;100071;;;28.4;43.7
79347;BME280;68815;48.810;44.482;2023-08-06T21:34:45;100072;;;28.3;44.2
79347;BME280;68815;48.810;44.482;2023-08-06T21:37:46;100078;;;28.3;44.5
79347;BME280;68815;48.810;44.482;2023-08-06T21:40:48;100071;;;28.2;44.9
79347;BME280;68815;48.810;44.482;2023-08-06T21:43:50;100070;;;28.2;44.9
79347;BME280;68815;48.810;44.482;2023-08-06T21:46:51;100069;;;28.2;45
79347;BME280;68815;48.810;44.482;2023-08-06T21:49:53;100071;;;28.2;45.1
79347;BME280;68815;48.810;44.482;2023-08-06T21:52:55;100070;;;28.1;45.2
79347;BME280;68815;48.810;44.482;2023-08-06T21:55:57;100076;;;28.1;45.3
79347;BME280;68815;48.810;44.482;2023-08-06T21:58:59;100081;;;28.1;45.6
79347;BME280;68815;48.810;44.482;2023-08-06T22:02:00;100077;;;28;45.8
79347;BME280;68815;48.810;44.482;2023-08-06T22:05:02;100081;;;28;45.9
79347;BME280;68815;48.810;44.482;2023-08-06T22:08:04;100082;;;27.9;46.1
79347;BME280;68815;48.810;44.482;2023-08-06T22:11:05;100088;;;27.8;46.4
79347;BME280;68815;48.810;44.482;2023-08-06T22:14:07;100093;;;27.8;46.4
79347;BME280;68815;48.810;44.482;2023-08-06T22:17:08;100094;;;27.7;46.6
79347;BME280;68815;48.810;44.482;2023-08-06T22:20:10;100096;;;27.7;46.7
79347;BME280;68815;48.810;44.482;2023-08-06T22:23:12;100097;;;27.7;46.6
79347;BME280;68815;48.810;44.482;2023-08-06T22:26:13;100093;;;27.7;46.9
79347;BME280;68815;48.810;44.482;2023-08-06T22:29:14;100090;;;27.6;46.9
79347;BME280;68815;48.810;44.482;2023-08-06T22:32:16;100086;;;27.6;47.1
79347;BME280;68815;48.810;44.482;2023-08-06T22:35:17;100101;;;27.5;47.2
79347;BME280;68815;48.810;44.482;2023-08-06T22:38:19;100095;;;27.5;47
79347;BME280;68815;48.810;44.482;2023-08-06T22:41:20;100095;;;27.4;47.3
79347;BME280;68815;48.810;44.482;2023-08-06T22:44:22;100101;;;27.4;47.2
79347;BME280;68815;48.810;44.482;2023-08-06T22:47:23;100103;;;27.4;47.3
79347;BME280;68815;48.810;44.482;2023-08-06T22:50:25;100102;;;27.3;47.6
79347;BME280;68815;48.810;44.482;2023-08-06T22:53:27;100100;;;27.3;47.6
79347;BME280;68815;48.810;44.482;2023-08-06T22:56:28;100096;;;27.3;47.4
79347;BME280;68815;48.810;44.482;2023-08-06T22:59:30;100098;;;27.2;47.7
79347;BME280;68815;48.810;44.482;2023-08-06T23:02:31;100098;;;27.1;47.8
79347;BME280;68815;48.810;44.482;2023-08-06T23:05:32;100099;;;27.1;47.8
79347;BME280;68815;48.810;44.482;2023-08-06T23:08:34;100093;;;27.1;48.1
79347;BME280;68815;48.810;44.482;2023-08-06T23:11:35;100096;;;27;48.2
79347;BME280;68815;48.810;44.482;2023-08-06T23:14:37;100095;;;27;48.3
79347;BME280;68815;48.810;44.482;2023-08-06T23:17:38;100097;;;26.9;48.2
79347;BME280;68815;48.810;44.482;2023-08-06T23:20:40;100092;;;26.9;48.5
79347;BME280;68815;48.810;44.482;2023-08-06T23:23:41;100092;;;26.9;48.2
79347;BME280;68815;48.810;44.482;2023-08-06T23:26:43;100091;;;26.7;48.8
79347;BME280;68815;48.810;44.482;2023-08-06T23:29:44;100089;;;26.8;48.7
79347;BME280;68815;48.810;44.482;2023-08-06T23:32:45;100088;;;26.7;48.7
79347;BME280;68815;48.810;44.482;2023-08-06T23:35:47;100085;;;26.7;48.8
79347;BME280;68815;48.810;44.482;2023-08-06T23:38:48;100083;;;26.7;48.8
79347;BME280;68815;48.810;44.482;2023-08-06T23:41:50;100076;;;26.7;48.8
79347;BME280;68815;48.810;44.482;2023-08-06T23:44:51;100074;;;26.7;48.9
79347;BME280;68815;48.810;44.482;2023-08-06T23:47:53;100071;;;26.6;49.1
79347;BME280;68815;48.810;44.482;2023-08-06T23:50:54;100070;;;26.6;49.3
79347;BME280;68815;48.810;44.482;2023-08-06T23:53:56;100066;;;26.5;49.4
79347;BME280;68815;48.810;44.482;2023-08-06T23:56:58;100060;;;26.4;49.8
79347;BME280;68815;48.810;44.482;2023-08-06T23:59:59;100058;;;26.4;49.4
